Praha, Texas
Current Conditions -  °F | °C
As of 9:50 PM on Wednesday 17 Dec 2014 (Local Time) from K3T5 Reporting Station
Scattered Clouds Scattered Clouds  
Wind Chill: 62°   Ceiling: Unl
Heat Index: 62°   Visibility: 10mi
Dew Point: 59°   Wind: 7mph
Humidity: 92%   Direction: 120°ESE
Pressure: 30.07"   Gusts: NA
Location:  29.7626°N, 97.1228°W
Report Text: K3T5 180350Z AUTO 12006KT 10SM SCT013 SCT060 SCT085 16/15 A3007 RMK AO2 T01640151
Loading
Personal Weather Stations






























Interactive Weather Map New forecast layout! Learn more

10-Day Weather Forecast

Advertisements
Track Severe Weather on mobile